.
WxDataArchive / Data Records for 2013-06-20
2013-06-19 June 2013 2013-06-21

Data Records for Thursday, 20 June 2013

Time	Temp	Chill	HIndex	Humid	Dewpt	 Wind 	HiWind	WindDir	Rain 	Barom 
-----	----	-----	------	-----	-----	------	------	-------	-----	----- 
00:00	64.3	64.3	64.3	60	50.1	1	3	90	0.00	30.118 
00:05	64.2	64.2	64.2	60	50.0	1	5	90	0.00	30.118 
00:10	64.0	64.0	64.0	60	49.8	1	3	90	0.00	30.118 
00:15	63.9	63.9	63.9	60	49.7	1	3	90	0.00	30.114 
00:20	63.9	63.9	63.9	61	50.2	1	3	90	0.00	30.114 
00:25	63.7	63.7	63.7	61	50.0	1	3	90	0.00	30.114 
00:30	63.4	63.4	63.4	62	50.1	0	2	90	0.00	30.116 
00:35	63.2	63.2	63.2	62	50.0	1	4	90	0.00	30.116 
00:40	63.1	63.1	63.1	63	50.3	1	3	90	0.00	30.116 
00:45	62.9	62.9	62.9	63	50.1	1	3	90	0.00	30.118 
00:50	62.7	62.7	62.7	64	50.3	0	2	90	0.00	30.118 
00:55	62.6	62.6	62.6	64	50.2	1	2	90	0.00	30.118 
01:00	62.3	62.3	62.3	65	50.4	0	1	90	0.00	30.121 
01:05	62.1	62.1	62.1	65	50.2	0	2	90	0.00	30.121 
01:10	62.0	62.0	62.0	65	50.1	0	2	90	0.00	30.121 
01:15	61.8	61.8	61.8	66	50.3	0	3	90	0.00	30.120 
01:20	61.6	61.6	61.6	66	50.1	1	4	90	0.00	30.120 
01:25	61.5	61.5	61.5	67	50.4	0	2	90	0.00	30.120 
01:30	61.3	61.3	61.3	67	50.2	0	3	90	0.00	30.122 
01:35	61.2	61.2	61.2	68	50.5	0	2	90	0.00	30.122 
01:40	61.2	61.2	61.2	68	50.5	0	2	90	0.00	30.122 
01:45	61.0	61.0	61.0	68	50.4	0	2	90	0.00	30.126 
01:50	60.9	60.9	60.9	69	50.7	0	1	90	0.00	30.126 
01:55	60.7	60.7	60.7	69	50.5	0	0	---	0.00	30.126 
02:00	60.5	60.5	60.5	70	50.7	0	0	---	0.00	30.130 
02:05	60.2	60.2	60.2	71	50.8	0	0	---	0.00	30.130 
02:10	60.1	60.1	60.1	72	51.0	0	0	---	0.00	30.130 
02:15	59.8	59.8	59.8	72	50.8	0	0	---	0.00	30.133 
02:20	59.5	59.5	59.5	73	50.8	0	0	---	0.00	30.133 
02:25	59.2	59.2	59.2	73	50.5	0	0	---	0.00	30.133 
02:30	58.7	58.7	58.7	74	50.4	0	0	---	0.00	30.131 
02:35	58.4	58.4	58.4	74	50.1	0	0	---	0.00	30.131 
02:40	58.3	58.3	58.3	75	50.4	0	0	---	0.00	30.131 
02:45	58.0	58.0	58.0	76	50.5	0	0	---	0.00	30.133 
02:50	57.8	57.8	57.8	76	50.3	0	0	---	0.00	30.133 
02:55	57.6	57.6	57.6	77	50.4	0	0	---	0.00	30.133 
03:00	57.3	57.3	57.3	77	50.1	0	0	---	0.00	30.135 
03:05	57.2	57.2	57.2	78	50.4	0	0	---	0.00	30.135 
03:10	56.9	56.9	56.9	79	50.5	0	0	---	0.00	30.135 
03:15	56.6	56.6	56.6	80	50.5	0	0	---	0.00	30.135 
03:20	56.5	56.5	56.5	80	50.4	0	0	---	0.00	30.135 
03:25	56.3	56.3	56.3	80	50.2	0	0	---	0.00	30.135 
03:30	56.2	56.2	56.2	81	50.4	0	0	---	0.00	30.132 
03:35	56.0	56.0	56.0	81	50.3	0	0	---	0.00	30.132 
03:40	55.9	55.9	55.9	82	50.5	0	0	---	0.00	30.132 
03:45	55.7	55.7	55.7	82	50.3	0	0	---	0.00	30.134 
03:50	55.7	55.7	55.7	82	50.3	0	0	---	0.00	30.134 
03:55	55.6	55.6	55.6	83	50.5	0	0	---	0.00	30.134 
04:00	55.6	55.6	55.6	84	50.8	0	0	---	0.00	30.136 
04:05	55.4	55.4	55.4	84	50.6	0	0	---	0.00	30.136 
04:10	55.4	55.4	55.4	84	50.6	0	0	---	0.00	30.136 
04:15	55.3	55.3	55.3	84	50.5	0	0	---	0.00	30.138 
04:20	55.3	55.3	55.3	84	50.5	0	0	---	0.00	30.138 
04:25	55.1	55.1	55.1	84	50.4	0	0	---	0.00	30.138 
04:30	55.1	55.1	55.1	84	50.4	0	0	---	0.00	30.139 
04:35	55.0	55.0	55.0	85	50.6	0	0	---	0.00	30.139 
04:40	54.8	54.8	54.8	85	50.4	0	0	---	0.00	30.139 
04:45	54.8	54.8	54.8	85	50.4	0	0	---	0.00	30.137 
04:50	54.7	54.7	54.7	86	50.6	0	0	---	0.00	30.137 
04:55	54.5	54.5	54.5	86	50.4	0	0	---	0.00	30.137 
05:00	54.5	54.5	54.5	86	50.4	0	0	---	0.00	30.139 
05:05	54.4	54.4	54.4	87	50.6	0	0	---	0.00	30.139 
05:10	54.2	54.2	54.2	87	50.4	0	0	---	0.00	30.139 
05:15	54.2	54.2	54.2	87	50.4	0	0	---	0.00	30.145 
05:20	54.2	54.2	54.2	88	50.7	0	0	---	0.00	30.145 
05:25	54.1	54.1	54.1	88	50.6	0	0	---	0.00	30.145 
05:30	53.9	53.9	53.9	88	50.4	0	0	---	0.00	30.150 
05:35	53.9	53.9	53.9	88	50.4	0	0	---	0.00	30.150 
05:40	53.8	53.8	53.8	88	50.3	0	0	---	0.00	30.150 
05:45	53.8	53.8	53.8	88	50.3	0	0	---	0.00	30.153 
05:50	53.6	53.6	53.6	89	50.4	0	0	---	0.00	30.153 
05:55	53.6	53.6	53.6	89	50.4	0	0	---	0.00	30.153 
06:00	53.6	53.6	53.6	89	50.4	0	0	---	0.00	30.154 
06:05	53.5	53.5	53.5	89	50.3	0	0	---	0.00	30.154 
06:10	53.5	53.5	53.5	89	50.3	0	0	---	0.00	30.154 
06:15	53.5	53.5	53.5	90	50.6	0	0	---	0.00	30.157 
06:20	53.5	53.5	53.5	90	50.6	0	0	---	0.00	30.157 
06:25	53.3	53.3	53.3	90	50.4	0	0	---	0.00	30.157 
06:30	53.3	53.3	53.3	90	50.4	0	0	---	0.00	30.164 
06:35	53.3	53.3	53.3	90	50.4	0	0	---	0.00	30.164 
06:40	53.5	53.5	53.5	90	50.6	0	0	---	0.00	30.164 
06:45	53.5	53.5	53.5	91	50.9	0	0	---	0.00	30.160 
06:50	53.8	53.8	53.8	91	51.2	0	0	---	0.00	30.160 
06:55	53.9	53.9	53.9	91	51.3	0	0	---	0.00	30.160 
07:00	54.2	54.2	54.2	91	51.6	0	1	90	0.00	30.164 
07:05	54.7	54.7	54.7	90	51.8	0	1	0	0.00	30.164 
07:10	55.3	55.3	55.3	88	51.8	0	1	0	0.00	30.164 
07:15	55.9	55.9	55.9	86	51.8	0	2	0	0.00	30.159 
07:20	56.5	56.5	56.5	84	51.7	0	2	0	0.00	30.159 
07:25	57.2	57.2	57.2	83	52.1	0	1	0	0.00	30.159 
07:30	58.0	58.0	58.0	82	52.5	0	1	0	0.00	30.159 
07:35	58.9	58.9	58.9	80	52.7	0	1	0	0.00	30.159 
07:40	59.6	59.6	59.6	76	52.0	0	2	0	0.00	30.159 
07:45	60.7	60.7	60.7	74	52.4	0	1	0	0.00	30.163 
07:50	61.5	61.5	61.5	72	52.4	0	2	0	0.00	30.163 
07:55	62.3	62.3	62.3	70	52.4	0	2	0	0.00	30.163 
08:00	62.7	62.7	62.7	70	52.8	0	2	0	0.00	30.162 
08:05	63.4	63.4	63.4	69	53.0	0	1	0	0.00	30.162 
08:10	64.2	64.2	64.2	67	53.0	0	1	0	0.00	30.162 
08:15	65.0	65.0	65.0	66	53.4	0	1	0	0.00	30.167 
08:20	65.6	65.6	65.6	65	53.5	0	1	0	0.00	30.167 
08:25	66.3	66.3	66.3	64	53.7	0	1	0	0.00	30.167 
08:30	66.9	66.9	66.9	62	53.4	0	1	0	0.00	30.172 
08:35	67.3	67.3	67.3	62	53.8	0	2	22	0.00	30.172 
08:40	67.6	67.6	67.6	61	53.7	0	2	22	0.00	30.172 
08:45	68.3	68.3	68.3	61	54.3	0	1	22	0.00	30.173 
08:50	68.6	68.6	68.6	61	54.6	0	1	22	0.00	30.173 
08:55	69.1	69.1	69.1	58	53.7	1	3	45	0.00	30.173 
09:00	69.3	69.3	69.3	58	53.9	0	1	90	0.00	30.175 
09:05	69.6	69.6	69.6	59	54.6	0	1	90	0.00	30.175 
09:10	70.1	70.1	70.1	59	55.1	0	1	90	0.00	30.175 
09:15	70.8	70.8	70.8	56	54.3	0	1	90	0.00	30.178 
09:20	71.3	71.3	71.3	56	54.8	0	2	90	0.00	30.178 
09:25	71.8	71.8	71.8	57	55.7	0	1	90	0.00	30.178 
09:30	72.5	72.5	72.5	55	55.4	0	2	90	0.00	30.175 
09:35	73.0	73.0	73.0	54	55.4	0	1	90	0.00	30.175 
09:40	73.2	73.2	73.2	54	55.5	0	2	90	0.00	30.175 
09:45	73.5	73.5	73.5	51	54.2	0	1	90	0.00	30.174 
09:50	73.9	73.9	73.9	52	55.1	0	1	90	0.00	30.174 
09:55	74.4	74.4	74.4	51	55.1	0	2	90	0.00	30.174 
10:00	74.7	74.7	74.7	50	54.8	0	2	90	0.00	30.173 
10:05	75.3	75.3	77.7	51	55.9	0	1	90	0.00	30.173 
10:10	75.8	75.8	78.0	51	56.4	0	2	90	0.00	30.173 
10:15	76.0	76.0	78.1	51	56.5	0	2	90	0.00	30.171 
10:20	76.0	76.0	78.1	50	56.0	0	2	90	0.00	30.171 
10:25	76.1	76.1	78.1	52	57.2	0	1	90	0.00	30.171 
10:30	76.3	76.3	78.2	50	56.3	0	2	90	0.00	30.173 
10:35	76.7	76.7	78.4	51	57.2	1	3	90	0.00	30.173 
10:40	76.8	76.8	78.5	50	56.7	0	3	90	0.00	30.173 
10:45	76.7	76.7	78.4	51	57.2	0	2	90	0.00	30.175 
10:50	76.3	76.3	78.2	50	56.3	0	2	90	0.00	30.175 
10:55	76.1	76.1	78.1	52	57.2	0	1	90	0.00	30.175 
11:00	76.5	76.5	78.3	50	56.5	0	1	90	0.00	30.174 
11:05	76.8	76.8	78.6	54	58.9	0	1	90	0.00	30.174 
11:10	77.4	77.4	78.8	50	57.3	0	1	90	0.00	30.174 
11:15	77.4	77.4	78.7	47	55.6	0	1	90	0.00	30.171 
11:20	77.7	77.7	79.0	49	57.0	0	2	90	0.00	30.171 
11:25	77.6	77.6	78.9	49	56.9	0	1	90	0.00	30.171 
11:30	77.9	77.9	79.1	48	56.6	1	3	90	0.00	30.165 
11:35	78.8	78.8	79.9	52	59.7	0	1	90	0.00	30.165 
11:40	79.6	79.6	80.2	47	57.6	0	2	90	0.00	30.165 
11:45	79.6	79.6	80.0	45	56.4	1	3	90	0.00	30.163 
11:50	79.4	79.4	80.0	46	56.8	0	2	90	0.00	30.163 
11:55	79.4	79.4	80.1	48	58.0	0	1	90	0.00	30.163 
12:00	79.4	79.4	80.1	48	58.0	0	2	90	0.00	30.161 
12:05	79.8	79.8	80.3	46	57.2	1	2	90	0.00	30.161 
12:10	80.1	80.1	80.4	45	56.8	0	2	90	0.00	30.161 
12:15	80.7	80.7	81.6	51	60.9	0	1	90	0.00	30.159 
12:20	80.9	80.9	81.3	47	58.8	0	2	68	0.00	30.159 
12:25	80.9	80.9	81.3	47	58.8	0	3	68	0.00	30.159 
12:30	81.1	81.1	81.4	46	58.3	0	2	68	0.00	30.162 
12:35	81.2	81.2	81.6	47	59.0	0	2	68	0.00	30.162 
12:40	81.1	81.1	81.1	44	57.1	1	3	68	0.00	30.162 
12:45	80.7	80.7	80.8	44	56.7	1	3	68	0.00	30.162 
12:50	80.5	80.5	80.6	44	56.6	0	2	68	0.00	30.162 
12:55	80.9	80.9	81.5	49	59.9	0	2	68	0.00	30.162 
13:00	81.1	81.1	81.3	45	57.7	1	2	68	0.00	30.156 
13:05	81.1	81.1	81.1	44	57.1	1	4	45	0.00	30.156 
13:10	80.5	80.5	80.8	46	57.8	1	4	315	0.00	30.156 
13:15	79.9	79.9	80.4	46	57.2	1	2	315	0.00	30.158 
13:20	79.9	79.9	80.4	46	57.2	0	2	315	0.00	30.158 
13:25	80.3	80.3	80.7	46	57.6	1	3	315	0.00	30.158 
13:30	80.1	80.1	80.4	45	56.8	1	3	315	0.00	30.158 
13:35	79.8	79.8	80.4	47	57.8	0	2	315	0.00	30.158 
13:40	79.8	79.8	80.5	48	58.3	0	2	315	0.00	30.158 
13:45	79.8	79.8	80.4	47	57.8	0	3	315	0.00	30.159 
13:50	79.9	79.9	80.4	47	57.8	1	4	315	0.00	30.159 
13:55	79.9	79.9	80.4	46	57.2	0	2	315	0.00	30.159 
14:00	80.1	80.1	80.7	48	58.6	0	1	315	0.00	30.156 
14:05	79.9	79.9	80.6	49	59.0	0	2	315	0.00	30.156 
14:10	80.1	80.1	81.0	51	60.3	0	2	315	0.00	30.156 
14:15	80.3	80.3	80.9	48	58.8	0	2	315	0.00	30.159 
14:20	80.5	80.5	81.2	49	59.6	0	2	315	0.00	30.159 
14:25	80.3	80.3	80.9	48	58.8	0	2	315	0.00	30.159 
14:30	80.1	80.1	81.0	51	60.3	0	1	315	0.00	30.155 
14:35	80.1	80.1	80.8	49	59.2	0	1	315	0.00	30.155 
14:40	80.1	80.1	80.9	50	59.8	1	2	315	0.00	30.155 
14:45	80.7	80.7	81.8	53	62.0	0	1	315	0.00	30.149 
14:50	81.1	81.1	82.2	53	62.3	0	1	315	0.00	30.149 
14:55	81.4	81.4	81.5	45	58.0	0	1	315	0.00	30.149 
15:00	81.4	81.4	81.9	48	59.8	1	3	315	0.00	30.152 
15:05	82.2	82.2	82.8	49	61.1	0	1	315	0.00	30.152 
15:10	82.4	82.4	82.7	47	60.1	0	2	315	0.00	30.152 
15:15	82.6	82.6	83.3	49	61.5	0	2	315	0.00	30.150 
15:20	83.0	83.0	83.2	46	60.1	1	5	315	0.00	30.150 
15:25	82.8	82.8	83.2	47	60.5	1	3	315	0.00	30.150 
15:30	82.6	82.6	83.0	47	60.3	0	2	315	0.00	30.156 
15:35	82.4	82.4	83.0	49	61.3	0	1	315	0.00	30.156 
15:40	82.2	82.2	83.0	50	61.7	0	2	315	0.00	30.156 
15:45	82.6	82.6	82.8	46	59.7	1	3	315	0.00	30.148 
15:50	82.8	82.8	83.2	47	60.5	0	2	315	0.00	30.148 
15:55	83.2	83.2	83.6	47	60.8	0	1	315	0.00	30.148 
16:00	83.6	83.6	84.1	47	61.2	0	2	315	0.00	30.142 
16:05	83.4	83.4	83.8	47	61.0	0	2	315	0.00	30.142 
16:10	83.4	83.4	83.7	46	60.4	1	2	315	0.00	30.142 
16:15	83.6	83.6	84.1	47	61.2	0	1	315	0.00	30.140 
16:20	83.8	83.8	84.1	46	60.8	0	2	315	0.00	30.140 
16:25	83.8	83.8	83.7	44	59.5	1	3	315	0.00	30.140 
16:30	84.0	84.0	84.1	45	60.3	0	1	315	0.00	30.138 
16:35	83.8	83.8	83.7	44	59.5	1	2	315	0.00	30.138 
16:40	83.4	83.4	83.5	45	59.8	1	3	315	0.00	30.138 
16:45	83.2	83.2	83.3	45	59.6	1	3	315	0.00	30.141 
16:50	82.8	82.8	83.2	47	60.5	0	3	315	0.00	30.141 
16:55	81.8	81.8	82.3	48	60.2	1	4	315	0.00	30.141 
17:00	81.1	81.1	81.7	49	60.1	0	2	315	0.00	30.141 
17:05	80.7	80.7	81.3	49	59.7	0	1	315	0.00	30.141 
17:10	80.5	80.5	81.3	50	60.1	0	1	315	0.00	30.141 
17:15	80.9	80.9	81.9	52	61.6	0	1	315	0.00	30.139 
17:20	81.6	81.6	82.3	50	61.1	0	2	315	0.00	30.139 
17:25	82.0	82.0	82.5	48	60.3	0	2	315	0.00	30.139 
17:30	82.6	82.6	83.0	47	60.3	0	1	315	0.00	30.133 
17:35	83.2	83.2	83.6	47	60.8	0	1	315	0.00	30.133 
17:40	83.6	83.6	84.2	48	61.8	0	1	315	0.00	30.133 
17:45	83.8	83.8	84.3	47	61.4	0	2	315	0.00	30.128 
17:50	83.6	83.6	83.5	44	59.3	0	1	315	0.00	30.128 
17:55	83.6	83.6	83.9	46	60.6	0	1	315	0.00	30.128 
18:00	83.2	83.2	83.3	45	59.6	0	1	315	0.00	30.123 
18:05	82.6	82.6	82.8	46	59.7	0	1	315	0.00	30.123 
18:10	82.2	82.2	82.4	46	59.3	0	1	315	0.00	30.123 
18:15	82.2	82.2	82.8	49	61.1	0	2	315	0.00	30.117 
18:20	82.0	82.0	82.3	47	59.8	0	1	315	0.00	30.117 
18:25	81.8	81.8	82.1	47	59.6	0	2	45	0.00	30.117 
18:30	81.8	81.8	82.1	47	59.6	0	2	45	0.00	30.118 
18:35	81.8	81.8	82.3	48	60.2	0	1	45	0.00	30.118 
18:40	81.8	81.8	82.1	47	59.6	0	2	45	0.00	30.118 
18:45	81.6	81.6	82.2	49	60.6	0	1	45	0.00	30.115 
18:50	81.4	81.4	81.9	48	59.8	0	1	45	0.00	30.115 
18:55	81.4	81.4	82.1	50	60.9	0	0	---	0.00	30.115 
19:00	81.4	81.4	82.0	49	60.4	0	1	45	0.00	30.116 
19:05	81.4	81.4	81.9	48	59.8	0	1	45	0.00	30.116 
19:10	81.4	81.4	81.9	48	59.8	0	2	45	0.00	30.116 
19:15	81.2	81.2	81.8	49	60.2	0	1	45	0.00	30.110 
19:20	81.1	81.1	81.6	48	59.5	0	2	45	0.00	30.110 
19:25	80.9	80.9	81.4	48	59.3	0	0	---	0.00	30.110 
19:30	80.9	80.9	81.6	50	60.5	0	1	45	0.00	30.109 
19:35	80.9	80.9	81.5	49	59.9	0	1	45	0.00	30.109 
19:40	80.9	80.9	81.5	49	59.9	0	1	45	0.00	30.109 
19:45	80.9	80.9	81.6	50	60.5	0	1	45	0.00	30.108 
19:50	80.9	80.9	81.8	51	61.0	0	1	45	0.00	30.108 
19:55	80.7	80.7	81.4	50	60.3	0	1	45	0.00	30.108 
20:00	80.7	80.7	81.4	50	60.3	0	3	45	0.00	30.109 
20:05	80.5	80.5	81.4	51	60.7	0	0	---	0.00	30.109 
20:10	80.5	80.5	81.4	51	60.7	0	1	45	0.00	30.109 
20:15	80.3	80.3	81.2	51	60.5	0	0	---	0.00	30.106 
20:20	80.3	80.3	81.2	51	60.5	0	0	---	0.00	30.106 
20:25	80.1	80.1	81.1	52	60.9	0	0	---	0.00	30.106 
20:30	79.9	79.9	81.0	53	61.2	0	0	---	0.00	30.105 
20:35	79.8	79.8	80.9	53	61.1	0	0	---	0.00	30.105 
20:40	79.4	79.4	80.6	54	61.3	0	0	---	0.00	30.105 
20:45	79.0	79.0	80.3	54	60.9	0	0	---	0.00	30.106 
20:50	78.6	78.6	79.9	54	60.5	0	0	---	0.00	30.106 
20:55	78.5	78.5	79.8	54	60.4	0	0	---	0.00	30.106 
21:00	78.1	78.1	79.6	57	61.6	0	0	---	0.00	30.105 
21:05	77.7	77.7	79.3	57	61.2	0	0	---	0.00	30.105 
21:10	77.4	77.4	79.1	58	61.4	0	0	---	0.00	30.105 
21:15	77.0	77.0	78.8	58	61.1	0	0	---	0.00	30.102 
21:20	76.7	76.7	78.5	60	61.7	0	0	---	0.00	30.102 
21:25	76.5	76.5	78.4	60	61.6	0	0	---	0.00	30.102 
21:30	76.1	76.1	78.1	61	61.7	0	0	---	0.00	30.104 
21:35	76.0	76.0	78.0	62	62.0	0	0	---	0.00	30.104 
21:40	75.8	75.8	77.8	62	61.8	0	0	---	0.00	30.104 
21:45	75.4	75.4	77.5	62	61.5	0	0	---	0.00	30.106 
21:50	75.1	75.1	77.3	62	61.2	0	0	---	0.00	30.106 
21:55	74.9	74.9	74.9	63	61.4	0	0	---	0.00	30.106 
22:00	74.6	74.6	74.6	64	61.6	0	0	---	0.00	30.112 
22:05	74.4	74.4	74.4	65	61.8	0	0	---	0.00	30.112 
22:10	74.0	74.0	74.0	66	61.9	0	0	---	0.00	30.112 
22:15	73.9	73.9	73.9	66	61.8	0	0	---	0.00	30.118 
22:20	73.7	73.7	73.7	67	62.0	0	0	---	0.00	30.118 
22:25	73.5	73.5	73.5	68	62.3	0	0	---	0.00	30.118 
22:30	73.2	73.2	73.2	68	62.0	0	0	---	0.00	30.120 
22:35	73.0	73.0	73.0	69	62.2	0	0	---	0.00	30.120 
22:40	72.8	72.8	72.8	69	62.0	0	0	---	0.00	30.120 
22:45	72.7	72.7	72.7	70	62.3	0	0	---	0.00	30.122 
22:50	72.3	72.3	72.3	71	62.4	0	0	---	0.00	30.122 
22:55	72.1	72.1	72.1	71	62.2	0	0	---	0.00	30.122 
23:00	72.0	72.0	72.0	72	62.5	0	0	---	0.00	30.133 
23:05	71.8	71.8	71.8	73	62.7	0	0	---	0.00	30.133 
23:10	71.6	71.6	71.6	73	62.5	0	0	---	0.00	30.133 
23:15	71.3	71.3	71.3	73	62.2	0	0	---	0.00	30.133 
23:20	71.1	71.1	71.1	74	62.4	0	0	---	0.00	30.133 
23:25	70.9	70.9	70.9	74	62.2	0	0	---	0.00	30.133 
23:30	70.8	70.8	70.8	75	62.5	0	0	---	0.00	30.134 
23:35	70.6	70.6	70.6	75	62.3	0	0	---	0.00	30.134 
23:40	70.3	70.3	70.3	76	62.4	0	0	---	0.00	30.134 
23:45	70.1	70.1	70.1	76	62.2	0	0	---	0.00	30.137 
23:50	69.9	69.9	69.9	76	62.0	0	0	---	0.00	30.137 
23:55	69.8	69.8	69.8	77	62.3	0	0	---	0.00	30.137 

CoCoRaHS
IN-AL-39
A2 Web Hosting
Creative Commons License
GoDaddy
search engine by freefind advanced

loaded 2018-11-15 16:00:27 • last modified 2010-11-18 10:43:29
Privacy PolicyDisclaimer
• wx.awcolley.com is powered by PmWiki v.2002016 •
• all content (unless otherwise noted) © 2018 A W Colley